sensor_id;sensor_type;location;lat;lon;timestamp;P1;durP1;ratioP1;P2;durP2;ratioP2
13238;SDS011;6686;51.292;4.166;2023-04-25T00:02:37;13.30;;;3.60;;
13238;SDS011;6686;51.292;4.166;2023-04-25T00:05:23;17.23;;;3.97;;
13238;SDS011;6686;51.292;4.166;2023-04-25T00:08:09;9.43;;;4.23;;
13238;SDS011;6686;51.292;4.166;2023-04-25T00:10:55;6.83;;;3.10;;
13238;SDS011;6686;51.292;4.166;2023-04-25T00:13:41;10.90;;;4.32;;
13238;SDS011;6686;51.292;4.166;2023-04-25T00:16:27;9.83;;;2.93;;
13238;SDS011;6686;51.292;4.166;2023-04-25T00:19:13;19.10;;;3.87;;
13238;SDS011;6686;51.292;4.166;2023-04-25T00:21:59;14.57;;;3.60;;
13238;SDS011;6686;51.292;4.166;2023-04-25T00:24:45;12.53;;;4.00;;
13238;SDS011;6686;51.292;4.166;2023-04-25T00:27:30;8.07;;;4.00;;
13238;SDS011;6686;51.292;4.166;2023-04-25T00:30:16;8.97;;;3.10;;
13238;SDS011;6686;51.292;4.166;2023-04-25T00:33:02;11.83;;;4.20;;
13238;SDS011;6686;51.292;4.166;2023-04-25T00:35:48;10.43;;;3.60;;
13238;SDS011;6686;51.292;4.166;2023-04-25T00:38:34;11.00;;;3.80;;
13238;SDS011;6686;51.292;4.166;2023-04-25T00:41:20;11.27;;;3.93;;
13238;SDS011;6686;51.292;4.166;2023-04-25T00:44:08;10.67;;;3.53;;
13238;SDS011;6686;51.292;4.166;2023-04-25T00:46:53;12.00;;;4.22;;
13238;SDS011;6686;51.292;4.166;2023-04-25T00:49:39;13.97;;;4.33;;
13238;SDS011;6686;51.292;4.166;2023-04-25T00:52:24;6.63;;;3.40;;
13238;SDS011;6686;51.292;4.166;2023-04-25T00:55:10;9.57;;;3.67;;
13238;SDS011;6686;51.292;4.166;2023-04-25T00:57:56;13.20;;;3.57;;
13238;SDS011;6686;51.292;4.166;2023-04-25T01:00:42;12.70;;;3.80;;
13238;SDS011;6686;51.292;4.166;2023-04-25T01:03:28;14.90;;;4.40;;
13238;SDS011;6686;51.292;4.166;2023-04-25T01:06:14;10.47;;;3.20;;
13238;SDS011;6686;51.292;4.166;2023-04-25T01:08:59;13.38;;;4.47;;
13238;SDS011;6686;51.292;4.166;2023-04-25T01:11:45;14.20;;;3.97;;
13238;SDS011;6686;51.292;4.166;2023-04-25T01:14:31;14.60;;;4.27;;
13238;SDS011;6686;51.292;4.166;2023-04-25T01:17:17;12.27;;;3.83;;
13238;SDS011;6686;51.292;4.166;2023-04-25T01:20:04;13.20;;;4.45;;
13238;SDS011;6686;51.292;4.166;2023-04-25T01:22:50;12.00;;;3.57;;
13238;SDS011;6686;51.292;4.166;2023-04-25T01:25:35;14.87;;;4.47;;
13238;SDS011;6686;51.292;4.166;2023-04-25T01:28:21;12.40;;;3.27;;
13238;SDS011;6686;51.292;4.166;2023-04-25T01:31:07;9.90;;;3.50;;
13238;SDS011;6686;51.292;4.166;2023-04-25T01:33:53;11.07;;;3.67;;
13238;SDS011;6686;51.292;4.166;2023-04-25T01:36:39;13.43;;;4.03;;
13238;SDS011;6686;51.292;4.166;2023-04-25T01:39:24;15.68;;;4.75;;
13238;SDS011;6686;51.292;4.166;2023-04-25T01:42:10;11.93;;;3.83;;
13238;SDS011;6686;51.292;4.166;2023-04-25T01:44:56;14.57;;;4.40;;
13238;SDS011;6686;51.292;4.166;2023-04-25T01:47:42;7.73;;;3.53;;
13238;SDS011;6686;51.292;4.166;2023-04-25T01:50:28;9.27;;;3.20;;
13238;SDS011;6686;51.292;4.166;2023-04-25T01:53:14;11.50;;;3.57;;
13238;SDS011;6686;51.292;4.166;2023-04-25T01:56:00;11.23;;;3.97;;
13238;SDS011;6686;51.292;4.166;2023-04-25T01:58:46;13.80;;;4.20;;
13238;SDS011;6686;51.292;4.166;2023-04-25T02:01:32;9.70;;;4.40;;
13238;SDS011;6686;51.292;4.166;2023-04-25T02:04:17;10.10;;;4.10;;
13238;SDS011;6686;51.292;4.166;2023-04-25T02:07:03;10.53;;;3.90;;
13238;SDS011;6686;51.292;4.166;2023-04-25T02:09:49;11.90;;;4.07;;
13238;SDS011;6686;51.292;4.166;2023-04-25T02:12:35;8.53;;;3.87;;
13238;SDS011;6686;51.292;4.166;2023-04-25T02:15:20;10.50;;;3.63;;
13238;SDS011;6686;51.292;4.166;2023-04-25T02:18:06;17.33;;;4.23;;
13238;SDS011;6686;51.292;4.166;2023-04-25T02:20:52;9.27;;;3.70;;
13238;SDS011;6686;51.292;4.166;2023-04-25T02:23:37;11.23;;;4.30;;
13238;SDS011;6686;51.292;4.166;2023-04-25T02:26:24;10.00;;;3.80;;
13238;SDS011;6686;51.292;4.166;2023-04-25T02:29:09;14.43;;;3.93;;
13238;SDS011;6686;51.292;4.166;2023-04-25T02:31:55;12.97;;;3.83;;
13238;SDS011;6686;51.292;4.166;2023-04-25T02:34:42;12.00;;;3.87;;
13238;SDS011;6686;51.292;4.166;2023-04-25T02:37:27;8.67;;;3.40;;
13238;SDS011;6686;51.292;4.166;2023-04-25T02:40:13;12.63;;;4.00;;
13238;SDS011;6686;51.292;4.166;2023-04-25T02:42:59;14.50;;;3.80;;
13238;SDS011;6686;51.292;4.166;2023-04-25T02:45:46;11.43;;;3.50;;
13238;SDS011;6686;51.292;4.166;2023-04-25T02:48:32;11.00;;;3.97;;
13238;SDS011;6686;51.292;4.166;2023-04-25T02:51:18;12.47;;;3.63;;
13238;SDS011;6686;51.292;4.166;2023-04-25T02:54:04;8.13;;;3.90;;
13238;SDS011;6686;51.292;4.166;2023-04-25T02:56:49;12.33;;;4.00;;
13238;SDS011;6686;51.292;4.166;2023-04-25T02:59:35;9.80;;;3.50;;
13238;SDS011;6686;51.292;4.166;2023-04-25T03:02:21;9.43;;;3.80;;
13238;SDS011;6686;51.292;4.166;2023-04-25T03:05:07;8.87;;;3.07;;
13238;SDS011;6686;51.292;4.166;2023-04-25T03:07:52;9.83;;;2.90;;
13238;SDS011;6686;51.292;4.166;2023-04-25T03:10:38;6.93;;;3.23;;
13238;SDS011;6686;51.292;4.166;2023-04-25T03:13:24;9.10;;;3.72;;
13238;SDS011;6686;51.292;4.166;2023-04-25T03:16:10;6.83;;;3.20;;
13238;SDS011;6686;51.292;4.166;2023-04-25T03:18:56;10.90;;;3.43;;
13238;SDS011;6686;51.292;4.166;2023-04-25T03:21:42;9.70;;;3.60;;
13238;SDS011;6686;51.292;4.166;2023-04-25T03:24:27;6.50;;;3.40;;
13238;SDS011;6686;51.292;4.166;2023-04-25T03:27:13;7.33;;;3.00;;
13238;SDS011;6686;51.292;4.166;2023-04-25T03:29:59;7.80;;;2.87;;
13238;SDS011;6686;51.292;4.166;2023-04-25T03:32:45;9.43;;;3.57;;
13238;SDS011;6686;51.292;4.166;2023-04-25T03:35:31;8.47;;;3.13;;
13238;SDS011;6686;51.292;4.166;2023-04-25T03:38:17;6.83;;;2.87;;
13238;SDS011;6686;51.292;4.166;2023-04-25T03:41:03;9.03;;;3.57;;
13238;SDS011;6686;51.292;4.166;2023-04-25T03:43:49;5.73;;;3.07;;
13238;SDS011;6686;51.292;4.166;2023-04-25T03:46:35;10.30;;;3.23;;
13238;SDS011;6686;51.292;4.166;2023-04-25T03:49:21;5.13;;;2.83;;
13238;SDS011;6686;51.292;4.166;2023-04-25T03:52:07;8.40;;;3.63;;
13238;SDS011;6686;51.292;4.166;2023-04-25T03:54:53;9.33;;;2.97;;
13238;SDS011;6686;51.292;4.166;2023-04-25T03:57:39;7.93;;;3.27;;
13238;SDS011;6686;51.292;4.166;2023-04-25T04:00:25;10.40;;;3.13;;
13238;SDS011;6686;51.292;4.166;2023-04-25T04:03:11;10.83;;;3.47;;
13238;SDS011;6686;51.292;4.166;2023-04-25T04:05:57;12.37;;;3.77;;
13238;SDS011;6686;51.292;4.166;2023-04-25T04:08:43;10.30;;;3.40;;
13238;SDS011;6686;51.292;4.166;2023-04-25T04:11:29;6.27;;;3.10;;
13238;SDS011;6686;51.292;4.166;2023-04-25T04:14:15;9.83;;;3.03;;
13238;SDS011;6686;51.292;4.166;2023-04-25T04:17:01;10.63;;;3.70;;
13238;SDS011;6686;51.292;4.166;2023-04-25T04:19:47;8.17;;;3.50;;
13238;SDS011;6686;51.292;4.166;2023-04-25T04:22:33;11.43;;;4.32;;
13238;SDS011;6686;51.292;4.166;2023-04-25T04:25:19;13.97;;;4.13;;
13238;SDS011;6686;51.292;4.166;2023-04-25T04:28:05;5.77;;;3.33;;
13238;SDS011;6686;51.292;4.166;2023-04-25T04:30:51;7.60;;;3.70;;
13238;SDS011;6686;51.292;4.166;2023-04-25T04:33:37;12.07;;;4.37;;
13238;SDS011;6686;51.292;4.166;2023-04-25T04:36:23;8.80;;;3.97;;
13238;SDS011;6686;51.292;4.166;2023-04-25T04:39:09;8.90;;;3.30;;
13238;SDS011;6686;51.292;4.166;2023-04-25T04:41:55;8.60;;;3.33;;
13238;SDS011;6686;51.292;4.166;2023-04-25T04:44:41;10.07;;;3.50;;
13238;SDS011;6686;51.292;4.166;2023-04-25T04:47:27;9.03;;;2.80;;
13238;SDS011;6686;51.292;4.166;2023-04-25T04:50:13;9.18;;;3.65;;
13238;SDS011;6686;51.292;4.166;2023-04-25T04:52:58;6.50;;;2.80;;
13238;SDS011;6686;51.292;4.166;2023-04-25T04:55:45;5.60;;;2.60;;
13238;SDS011;6686;51.292;4.166;2023-04-25T04:58:31;10.13;;;3.50;;
13238;SDS011;6686;51.292;4.166;2023-04-25T05:01:17;8.37;;;3.33;;
13238;SDS011;6686;51.292;4.166;2023-04-25T05:04:02;8.87;;;3.17;;
13238;SDS011;6686;51.292;4.166;2023-04-25T05:06:48;8.27;;;2.50;;
13238;SDS011;6686;51.292;4.166;2023-04-25T05:09:34;6.53;;;2.77;;
13238;SDS011;6686;51.292;4.166;2023-04-25T05:12:20;4.77;;;2.37;;
13238;SDS011;6686;51.292;4.166;2023-04-25T05:15:06;5.47;;;2.60;;
13238;SDS011;6686;51.292;4.166;2023-04-25T05:17:52;9.00;;;3.13;;
13238;SDS011;6686;51.292;4.166;2023-04-25T05:20:38;9.83;;;2.90;;
13238;SDS011;6686;51.292;4.166;2023-04-25T05:23:24;10.77;;;3.07;;
13238;SDS011;6686;51.292;4.166;2023-04-25T05:26:10;9.43;;;2.90;;
13238;SDS011;6686;51.292;4.166;2023-04-25T05:28:56;8.03;;;3.20;;
13238;SDS011;6686;51.292;4.166;2023-04-25T05:31:41;8.97;;;3.40;;
13238;SDS011;6686;51.292;4.166;2023-04-25T05:34:27;7.53;;;2.80;;
13238;SDS011;6686;51.292;4.166;2023-04-25T05:37:13;7.13;;;3.00;;
13238;SDS011;6686;51.292;4.166;2023-04-25T05:39:59;8.37;;;2.70;;
13238;SDS011;6686;51.292;4.166;2023-04-25T05:42:45;9.60;;;2.63;;
13238;SDS011;6686;51.292;4.166;2023-04-25T05:45:30;5.73;;;2.93;;
13238;SDS011;6686;51.292;4.166;2023-04-25T05:48:16;7.83;;;2.63;;
13238;SDS011;6686;51.292;4.166;2023-04-25T05:51:02;6.40;;;3.33;;
13238;SDS011;6686;51.292;4.166;2023-04-25T05:53:48;6.73;;;2.43;;
13238;SDS011;6686;51.292;4.166;2023-04-25T05:56:33;8.33;;;2.67;;
13238;SDS011;6686;51.292;4.166;2023-04-25T05:59:19;7.60;;;2.47;;
13238;SDS011;6686;51.292;4.166;2023-04-25T06:02:05;8.97;;;3.10;;
13238;SDS011;6686;51.292;4.166;2023-04-25T06:04:50;10.97;;;2.83;;
13238;SDS011;6686;51.292;4.166;2023-04-25T06:07:36;6.83;;;2.13;;
13238;SDS011;6686;51.292;4.166;2023-04-25T06:10:22;6.00;;;2.77;;
13238;SDS011;6686;51.292;4.166;2023-04-25T06:13:08;7.03;;;2.40;;
13238;SDS011;6686;51.292;4.166;2023-04-25T06:15:54;10.23;;;2.90;;
13238;SDS011;6686;51.292;4.166;2023-04-25T06:18:40;5.17;;;3.00;;
13238;SDS011;6686;51.292;4.166;2023-04-25T06:21:25;7.13;;;2.63;;
13238;SDS011;6686;51.292;4.166;2023-04-25T06:24:11;6.57;;;2.50;;
13238;SDS011;6686;51.292;4.166;2023-04-25T06:26:57;9.87;;;2.80;;
13238;SDS011;6686;51.292;4.166;2023-04-25T06:29:43;9.33;;;2.60;;
13238;SDS011;6686;51.292;4.166;2023-04-25T06:32:29;4.40;;;2.13;;
13238;SDS011;6686;51.292;4.166;2023-04-25T06:35:15;6.83;;;2.27;;
13238;SDS011;6686;51.292;4.166;2023-04-25T06:38:01;7.10;;;2.70;;
13238;SDS011;6686;51.292;4.166;2023-04-25T06:40:47;5.23;;;2.30;;
13238;SDS011;6686;51.292;4.166;2023-04-25T06:43:32;6.23;;;2.20;;
13238;SDS011;6686;51.292;4.166;2023-04-25T06:46:19;7.70;;;2.23;;
13238;SDS011;6686;51.292;4.166;2023-04-25T06:49:05;7.03;;;2.27;;
13238;SDS011;6686;51.292;4.166;2023-04-25T06:51:51;7.10;;;1.93;;
13238;SDS011;6686;51.292;4.166;2023-04-25T06:54:37;5.60;;;2.30;;
13238;SDS011;6686;51.292;4.166;2023-04-25T06:57:22;4.77;;;2.10;;
13238;SDS011;6686;51.292;4.166;2023-04-25T07:00:09;4.33;;;2.37;;
13238;SDS011;6686;51.292;4.166;2023-04-25T07:02:55;6.13;;;2.30;;
13238;SDS011;6686;51.292;4.166;2023-04-25T07:05:41;3.23;;;2.23;;
13238;SDS011;6686;51.292;4.166;2023-04-25T07:08:26;4.63;;;1.93;;
13238;SDS011;6686;51.292;4.166;2023-04-25T07:11:12;7.50;;;2.23;;
13238;SDS011;6686;51.292;4.166;2023-04-25T07:13:58;4.70;;;1.70;;
13238;SDS011;6686;51.292;4.166;2023-04-25T07:16:44;5.67;;;1.80;;
13238;SDS011;6686;51.292;4.166;2023-04-25T07:19:33;3.78;;;1.83;;
13238;SDS011;6686;51.292;4.166;2023-04-25T07:22:19;7.10;;;2.10;;
13238;SDS011;6686;51.292;4.166;2023-04-25T07:25:05;5.27;;;2.43;;
13238;SDS011;6686;51.292;4.166;2023-04-25T07:27:51;5.27;;;2.53;;
13238;SDS011;6686;51.292;4.166;2023-04-25T07:30:37;5.80;;;2.17;;
13238;SDS011;6686;51.292;4.166;2023-04-25T07:33:23;6.40;;;2.13;;
13238;SDS011;6686;51.292;4.166;2023-04-25T07:36:09;8.00;;;2.50;;
13238;SDS011;6686;51.292;4.166;2023-04-25T07:38:55;7.10;;;2.17;;
13238;SDS011;6686;51.292;4.166;2023-04-25T07:41:41;3.17;;;1.80;;
13238;SDS011;6686;51.292;4.166;2023-04-25T07:44:26;4.60;;;1.90;;
13238;SDS011;6686;51.292;4.166;2023-04-25T07:47:13;3.97;;;1.40;;
13238;SDS011;6686;51.292;4.166;2023-04-25T07:49:58;5.50;;;1.50;;
13238;SDS011;6686;51.292;4.166;2023-04-25T07:52:45;3.93;;;1.67;;
13238;SDS011;6686;51.292;4.166;2023-04-25T07:55:31;7.50;;;2.00;;
13238;SDS011;6686;51.292;4.166;2023-04-25T07:58:17;5.57;;;1.70;;
13238;SDS011;6686;51.292;4.166;2023-04-25T08:01:03;4.90;;;2.10;;
13238;SDS011;6686;51.292;4.166;2023-04-25T08:03:49;4.20;;;1.95;;
13238;SDS011;6686;51.292;4.166;2023-04-25T08:06:35;3.83;;;1.93;;
13238;SDS011;6686;51.292;4.166;2023-04-25T08:09:21;4.07;;;1.95;;
13238;SDS011;6686;51.292;4.166;2023-04-25T08:12:07;10.43;;;2.30;;
13238;SDS011;6686;51.292;4.166;2023-04-25T08:14:52;4.60;;;1.75;;
13238;SDS011;6686;51.292;4.166;2023-04-25T08:17:38;4.15;;;1.95;;
13238;SDS011;6686;51.292;4.166;2023-04-25T08:20:24;6.18;;;1.98;;
13238;SDS011;6686;51.292;4.166;2023-04-25T08:23:10;5.43;;;2.13;;
13238;SDS011;6686;51.292;4.166;2023-04-25T08:25:56;7.50;;;2.83;;
13238;SDS011;6686;51.292;4.166;2023-04-25T08:28:42;6.67;;;2.73;;
13238;SDS011;6686;51.292;4.166;2023-04-25T08:31:28;4.47;;;2.03;;
13238;SDS011;6686;51.292;4.166;2023-04-25T08:34:14;7.80;;;1.90;;
13238;SDS011;6686;51.292;4.166;2023-04-25T08:37:00;3.60;;;1.80;;
13238;SDS011;6686;51.292;4.166;2023-04-25T08:39:47;6.57;;;1.90;;
13238;SDS011;6686;51.292;4.166;2023-04-25T08:42:33;5.60;;;1.50;;
13238;SDS011;6686;51.292;4.166;2023-04-25T08:45:19;4.67;;;2.07;;
13238;SDS011;6686;51.292;4.166;2023-04-25T08:48:05;7.17;;;2.17;;
13238;SDS011;6686;51.292;4.166;2023-04-25T08:50:52;5.00;;;2.20;;
13238;SDS011;6686;51.292;4.166;2023-04-25T08:53:37;6.63;;;1.93;;
13238;SDS011;6686;51.292;4.166;2023-04-25T08:56:23;5.60;;;2.10;;
13238;SDS011;6686;51.292;4.166;2023-04-25T08:59:09;3.73;;;2.00;;
13238;SDS011;6686;51.292;4.166;2023-04-25T09:01:55;7.00;;;2.10;;
13238;SDS011;6686;51.292;4.166;2023-04-25T09:04:42;3.83;;;1.90;;
13238;SDS011;6686;51.292;4.166;2023-04-25T09:07:27;4.70;;;1.90;;
13238;SDS011;6686;51.292;4.166;2023-04-25T09:10:13;5.20;;;1.87;;
13238;SDS011;6686;51.292;4.166;2023-04-25T09:13:12;7.23;;;2.03;;
13238;SDS011;6686;51.292;4.166;2023-04-25T09:15:59;7.75;;;2.50;;
13238;SDS011;6686;51.292;4.166;2023-04-25T09:18:45;7.37;;;1.77;;
13238;SDS011;6686;51.292;4.166;2023-04-25T09:21:31;4.17;;;1.77;;
13238;SDS011;6686;51.292;4.166;2023-04-25T09:24:32;6.93;;;2.07;;
13238;SDS011;6686;51.292;4.166;2023-04-25T09:27:19;5.83;;;1.57;;
13238;SDS011;6686;51.292;4.166;2023-04-25T09:30:05;3.67;;;1.50;;
13238;SDS011;6686;51.292;4.166;2023-04-25T09:32:51;4.73;;;1.87;;
13238;SDS011;6686;51.292;4.166;2023-04-25T09:35:37;5.70;;;1.87;;
13238;SDS011;6686;51.292;4.166;2023-04-25T09:38:23;3.70;;;1.70;;
13238;SDS011;6686;51.292;4.166;2023-04-25T09:41:09;4.50;;;1.70;;
13238;SDS011;6686;51.292;4.166;2023-04-25T09:43:56;7.10;;;1.77;;
13238;SDS011;6686;51.292;4.166;2023-04-25T09:46:41;4.57;;;1.70;;
13238;SDS011;6686;51.292;4.166;2023-04-25T09:49:27;3.03;;;1.67;;
13238;SDS011;6686;51.292;4.166;2023-04-25T09:52:23;6.63;;;2.03;;
13238;SDS011;6686;51.292;4.166;2023-04-25T09:55:08;8.07;;;1.63;;
13238;SDS011;6686;51.292;4.166;2023-04-25T09:57:54;4.77;;;1.67;;
13238;SDS011;6686;51.292;4.166;2023-04-25T10:00:40;2.70;;;1.73;;
13238;SDS011;6686;51.292;4.166;2023-04-25T10:03:25;2.57;;;1.63;;
13238;SDS011;6686;51.292;4.166;2023-04-25T10:06:18;3.93;;;1.30;;
13238;SDS011;6686;51.292;4.166;2023-04-25T10:09:00;5.22;;;1.98;;
13238;SDS011;6686;51.292;4.166;2023-04-25T10:11:46;4.93;;;1.50;;
13238;SDS011;6686;51.292;4.166;2023-04-25T10:14:31;3.10;;;1.60;;
13238;SDS011;6686;51.292;4.166;2023-04-25T10:17:17;2.27;;;1.33;;
13238;SDS011;6686;51.292;4.166;2023-04-25T10:20:03;4.17;;;1.30;;
13238;SDS011;6686;51.292;4.166;2023-04-25T10:22:52;2.57;;;1.30;;
13238;SDS011;6686;51.292;4.166;2023-04-25T10:25:37;3.07;;;1.27;;
13238;SDS011;6686;51.292;4.166;2023-04-25T10:28:23;3.80;;;1.50;;
13238;SDS011;6686;51.292;4.166;2023-04-25T10:31:09;2.40;;;1.30;;
13238;SDS011;6686;51.292;4.166;2023-04-25T10:33:55;2.80;;;1.20;;
13238;SDS011;6686;51.292;4.166;2023-04-25T10:36:41;3.73;;;1.53;;
13238;SDS011;6686;51.292;4.166;2023-04-25T10:39:27;2.50;;;1.20;;
13238;SDS011;6686;51.292;4.166;2023-04-25T10:42:12;2.03;;;1.13;;
13238;SDS011;6686;51.292;4.166;2023-04-25T10:45:03;5.27;;;1.40;;
13238;SDS011;6686;51.292;4.166;2023-04-25T10:47:47;1.10;;;1.00;;
13238;SDS011;6686;51.292;4.166;2023-04-25T10:50:37;4.27;;;1.60;;
13238;SDS011;6686;51.292;4.166;2023-04-25T10:53:23;2.80;;;1.43;;
13238;SDS011;6686;51.292;4.166;2023-04-25T10:56:18;3.07;;;1.33;;
13238;SDS011;6686;51.292;4.166;2023-04-25T10:59:07;2.53;;;1.20;;
13238;SDS011;6686;51.292;4.166;2023-04-25T11:01:52;2.63;;;1.20;;
13238;SDS011;6686;51.292;4.166;2023-04-25T11:04:37;6.85;;;1.80;;
13238;SDS011;6686;51.292;4.166;2023-04-25T11:07:26;4.07;;;1.10;;
13238;SDS011;6686;51.292;4.166;2023-04-25T11:10:09;4.30;;;1.40;;
13238;SDS011;6686;51.292;4.166;2023-04-25T11:12:56;8.00;;;1.77;;
13238;SDS011;6686;51.292;4.166;2023-04-25T11:15:41;5.57;;;1.92;;
13238;SDS011;6686;51.292;4.166;2023-04-25T11:18:27;5.40;;;1.83;;
13238;SDS011;6686;51.292;4.166;2023-04-25T11:21:13;3.60;;;1.90;;
13238;SDS011;6686;51.292;4.166;2023-04-25T11:23:59;4.47;;;1.80;;
13238;SDS011;6686;51.292;4.166;2023-04-25T11:26:46;4.03;;;1.70;;
13238;SDS011;6686;51.292;4.166;2023-04-25T11:29:31;4.07;;;1.77;;
13238;SDS011;6686;51.292;4.166;2023-04-25T11:32:17;3.25;;;1.60;;
13238;SDS011;6686;51.292;4.166;2023-04-25T11:35:02;4.67;;;1.90;;
13238;SDS011;6686;51.292;4.166;2023-04-25T11:37:48;6.63;;;1.60;;
13238;SDS011;6686;51.292;4.166;2023-04-25T11:40:37;4.80;;;1.67;;
13238;SDS011;6686;51.292;4.166;2023-04-25T11:43:23;3.50;;;1.70;;
13238;SDS011;6686;51.292;4.166;2023-04-25T11:46:09;4.37;;;1.47;;
13238;SDS011;6686;51.292;4.166;2023-04-25T11:48:55;4.43;;;1.50;;
13238;SDS011;6686;51.292;4.166;2023-04-25T11:51:45;1.67;;;1.30;;
13238;SDS011;6686;51.292;4.166;2023-04-25T11:54:29;4.97;;;1.87;;
13238;SDS011;6686;51.292;4.166;2023-04-25T11:57:18;5.10;;;1.40;;
13238;SDS011;6686;51.292;4.166;2023-04-25T12:00:08;4.50;;;1.30;;
13238;SDS011;6686;51.292;4.166;2023-04-25T12:02:51;4.97;;;1.62;;
13238;SDS011;6686;51.292;4.166;2023-04-25T12:05:37;6.90;;;2.00;;
13238;SDS011;6686;51.292;4.166;2023-04-25T12:08:22;1.70;;;1.10;;
13238;SDS011;6686;51.292;4.166;2023-04-25T12:11:19;5.83;;;1.50;;
13238;SDS011;6686;51.292;4.166;2023-04-25T12:13:54;4.87;;;1.60;;
13238;SDS011;6686;51.292;4.166;2023-04-25T12:16:41;3.70;;;1.40;;
13238;SDS011;6686;51.292;4.166;2023-04-25T12:19:36;3.47;;;1.23;;
13238;SDS011;6686;51.292;4.166;2023-04-25T12:22:23;3.80;;;1.50;;
13238;SDS011;6686;51.292;4.166;2023-04-25T12:25:04;3.93;;;1.27;;
13238;SDS011;6686;51.292;4.166;2023-04-25T12:27:53;2.57;;;1.40;;
13238;SDS011;6686;51.292;4.166;2023-04-25T12:33:45;2.67;;;1.27;;
13238;SDS011;6686;51.292;4.166;2023-04-25T12:36:32;6.63;;;1.90;;
13238;SDS011;6686;51.292;4.166;2023-04-25T12:39:19;2.27;;;1.30;;
13238;SDS011;6686;51.292;4.166;2023-04-25T12:42:07;8.27;;;1.60;;
13238;SDS011;6686;51.292;4.166;2023-04-25T12:44:53;3.97;;;1.40;;
13238;SDS011;6686;51.292;4.166;2023-04-25T12:47:39;4.17;;;1.80;;
13238;SDS011;6686;51.292;4.166;2023-04-25T12:50:25;3.73;;;1.40;;
13238;SDS011;6686;51.292;4.166;2023-04-25T12:53:11;6.00;;;1.90;;
13238;SDS011;6686;51.292;4.166;2023-04-25T12:55:57;4.37;;;1.23;;
13238;SDS011;6686;51.292;4.166;2023-04-25T12:58:43;3.60;;;1.53;;
13238;SDS011;6686;51.292;4.166;2023-04-25T13:01:29;3.22;;;1.60;;
13238;SDS011;6686;51.292;4.166;2023-04-25T13:04:15;3.08;;;1.40;;
13238;SDS011;6686;51.292;4.166;2023-04-25T13:07:01;2.97;;;1.60;;
13238;SDS011;6686;51.292;4.166;2023-04-25T13:09:48;2.17;;;1.17;;
13238;SDS011;6686;51.292;4.166;2023-04-25T13:12:34;3.77;;;1.33;;
13238;SDS011;6686;51.292;4.166;2023-04-25T13:15:19;3.47;;;1.63;;
13238;SDS011;6686;51.292;4.166;2023-04-25T13:18:05;3.50;;;1.50;;
13238;SDS011;6686;51.292;4.166;2023-04-25T13:20:52;3.37;;;1.47;;
13238;SDS011;6686;51.292;4.166;2023-04-25T13:23:37;4.57;;;1.53;;
13238;SDS011;6686;51.292;4.166;2023-04-25T13:26:23;5.50;;;1.63;;
13238;SDS011;6686;51.292;4.166;2023-04-25T13:29:09;3.30;;;1.30;;
13238;SDS011;6686;51.292;4.166;2023-04-25T13:31:59;4.20;;;1.53;;
13238;SDS011;6686;51.292;4.166;2023-04-25T13:34:45;2.37;;;1.23;;
13238;SDS011;6686;51.292;4.166;2023-04-25T13:37:30;4.37;;;1.40;;
13238;SDS011;6686;51.292;4.166;2023-04-25T13:40:16;6.40;;;1.77;;
13238;SDS011;6686;51.292;4.166;2023-04-25T13:43:02;6.37;;;1.43;;
13238;SDS011;6686;51.292;4.166;2023-04-25T13:45:48;3.53;;;1.40;;
13238;SDS011;6686;51.292;4.166;2023-04-25T13:48:34;4.83;;;1.30;;
13238;SDS011;6686;51.292;4.166;2023-04-25T13:51:20;3.63;;;1.37;;
13238;SDS011;6686;51.292;4.166;2023-04-25T13:54:06;4.13;;;1.13;;
13238;SDS011;6686;51.292;4.166;2023-04-25T13:56:52;2.97;;;1.23;;
13238;SDS011;6686;51.292;4.166;2023-04-25T13:59:38;3.90;;;1.20;;
13238;SDS011;6686;51.292;4.166;2023-04-25T14:02:24;3.03;;;1.10;;
13238;SDS011;6686;51.292;4.166;2023-04-25T14:05:10;5.70;;;1.80;;
13238;SDS011;6686;51.292;4.166;2023-04-25T14:07:56;4.10;;;1.40;;
13238;SDS011;6686;51.292;4.166;2023-04-25T14:10:42;2.77;;;1.10;;
13238;SDS011;6686;51.292;4.166;2023-04-25T14:13:28;4.43;;;1.50;;
13238;SDS011;6686;51.292;4.166;2023-04-25T14:16:15;4.93;;;1.57;;
13238;SDS011;6686;51.292;4.166;2023-04-25T14:19:01;5.90;;;1.73;;
13238;SDS011;6686;51.292;4.166;2023-04-25T14:21:50;5.37;;;1.80;;
13238;SDS011;6686;51.292;4.166;2023-04-25T14:24:36;4.13;;;1.60;;
13238;SDS011;6686;51.292;4.166;2023-04-25T14:27:22;8.17;;;1.67;;
13238;SDS011;6686;51.292;4.166;2023-04-25T14:30:08;2.53;;;1.20;;
13238;SDS011;6686;51.292;4.166;2023-04-25T14:32:54;4.93;;;1.53;;
13238;SDS011;6686;51.292;4.166;2023-04-25T14:35:40;4.30;;;1.50;;
13238;SDS011;6686;51.292;4.166;2023-04-25T14:38:25;3.47;;;1.30;;
13238;SDS011;6686;51.292;4.166;2023-04-25T14:41:11;3.47;;;1.50;;
13238;SDS011;6686;51.292;4.166;2023-04-25T14:43:58;5.37;;;1.70;;
13238;SDS011;6686;51.292;4.166;2023-04-25T14:46:43;3.87;;;1.73;;
13238;SDS011;6686;51.292;4.166;2023-04-25T14:49:29;3.90;;;1.60;;
13238;SDS011;6686;51.292;4.166;2023-04-25T14:52:15;4.03;;;1.50;;
13238;SDS011;6686;51.292;4.166;2023-04-25T14:55:01;7.87;;;1.63;;
13238;SDS011;6686;51.292;4.166;2023-04-25T14:57:47;6.90;;;1.60;;
13238;SDS011;6686;51.292;4.166;2023-04-25T15:00:36;4.83;;;1.63;;
13238;SDS011;6686;51.292;4.166;2023-04-25T15:03:22;5.10;;;2.05;;
13238;SDS011;6686;51.292;4.166;2023-04-25T15:06:08;5.12;;;2.08;;
13238;SDS011;6686;51.292;4.166;2023-04-25T15:08:53;4.90;;;1.50;;
13238;SDS011;6686;51.292;4.166;2023-04-25T15:11:39;6.10;;;1.80;;
13238;SDS011;6686;51.292;4.166;2023-04-25T15:14:25;4.53;;;1.60;;
13238;SDS011;6686;51.292;4.166;2023-04-25T15:17:11;4.40;;;1.87;;
13238;SDS011;6686;51.292;4.166;2023-04-25T15:19:57;3.00;;;1.20;;
13238;SDS011;6686;51.292;4.166;2023-04-25T15:22:43;2.90;;;1.50;;
13238;SDS011;6686;51.292;4.166;2023-04-25T15:25:28;3.67;;;1.60;;
13238;SDS011;6686;51.292;4.166;2023-04-25T15:28:14;4.27;;;1.73;;
13238;SDS011;6686;51.292;4.166;2023-04-25T15:31:00;3.12;;;1.50;;
13238;SDS011;6686;51.292;4.166;2023-04-25T15:33:46;3.22;;;1.58;;
13238;SDS011;6686;51.292;4.166;2023-04-25T15:36:32;5.40;;;1.80;;
13238;SDS011;6686;51.292;4.166;2023-04-25T15:39:18;4.33;;;1.93;;
13238;SDS011;6686;51.292;4.166;2023-04-25T15:42:04;5.97;;;1.80;;
13238;SDS011;6686;51.292;4.166;2023-04-25T15:44:50;5.13;;;3.03;;
13238;SDS011;6686;51.292;4.166;2023-04-25T15:47:37;4.72;;;2.00;;
13238;SDS011;6686;51.292;4.166;2023-04-25T15:50:22;4.50;;;2.05;;
13238;SDS011;6686;51.292;4.166;2023-04-25T15:53:08;5.00;;;1.70;;
13238;SDS011;6686;51.292;4.166;2023-04-25T15:55:54;4.90;;;1.87;;
13238;SDS011;6686;51.292;4.166;2023-04-25T15:58:40;3.37;;;1.60;;
13238;SDS011;6686;51.292;4.166;2023-04-25T16:01:26;2.77;;;1.70;;
13238;SDS011;6686;51.292;4.166;2023-04-25T16:04:12;4.37;;;1.83;;
13238;SDS011;6686;51.292;4.166;2023-04-25T16:06:57;6.17;;;2.07;;
13238;SDS011;6686;51.292;4.166;2023-04-25T16:09:43;5.17;;;1.90;;
13238;SDS011;6686;51.292;4.166;2023-04-25T16:12:30;5.13;;;1.60;;
13238;SDS011;6686;51.292;4.166;2023-04-25T16:15:16;3.30;;;1.50;;
13238;SDS011;6686;51.292;4.166;2023-04-25T16:18:01;3.17;;;1.60;;
13238;SDS011;6686;51.292;4.166;2023-04-25T16:20:47;4.03;;;1.93;;
13238;SDS011;6686;51.292;4.166;2023-04-25T16:23:33;5.63;;;1.93;;
13238;SDS011;6686;51.292;4.166;2023-04-25T16:26:19;3.93;;;1.97;;
13238;SDS011;6686;51.292;4.166;2023-04-25T16:29:05;5.77;;;1.87;;
13238;SDS011;6686;51.292;4.166;2023-04-25T16:31:52;5.70;;;2.15;;
13238;SDS011;6686;51.292;4.166;2023-04-25T16:34:37;3.00;;;1.50;;
13238;SDS011;6686;51.292;4.166;2023-04-25T16:37:23;4.00;;;1.50;;
13238;SDS011;6686;51.292;4.166;2023-04-25T16:40:09;3.60;;;1.70;;
13238;SDS011;6686;51.292;4.166;2023-04-25T16:42:55;4.35;;;1.70;;
13238;SDS011;6686;51.292;4.166;2023-04-25T16:45:41;1.73;;;1.40;;
13238;SDS011;6686;51.292;4.166;2023-04-25T16:48:26;4.47;;;1.60;;
13238;SDS011;6686;51.292;4.166;2023-04-25T16:51:13;2.80;;;1.40;;
13238;SDS011;6686;51.292;4.166;2023-04-25T16:53:59;4.67;;;1.70;;
13238;SDS011;6686;51.292;4.166;2023-04-25T16:56:44;5.53;;;1.65;;